sensor_id;sensor_type;location;lat;lon;timestamp;noise_LAeq;noise_LA_min;noise_LA_max;noise_LA01;noise_LA95
71030;Laerm;63723;51.436;5.976;2024-01-30T00:00:02;52.95;50.25;55.35;;
71030;Laerm;63723;51.436;5.976;2024-01-30T00:00:14;52.78;51.15;55.76;;
71030;Laerm;63723;51.436;5.976;2024-01-30T00:00:24;52.60;51.03;53.72;;
71030;Laerm;63723;51.436;5.976;2024-01-30T00:00:35;52.12;50.34;54.65;;
71030;Laerm;63723;51.436;5.976;2024-01-30T00:00:45;52.06;50.54;55.49;;
71030;Laerm;63723;51.436;5.976;2024-01-30T00:00:56;52.30;50.65;55.45;;
71030;Laerm;63723;51.436;5.976;2024-01-30T00:01:07;52.42;50.32;55.06;;
71030;Laerm;63723;51.436;5.976;2024-01-30T00:01:17;52.11;50.48;54.90;;
71030;Laerm;63723;51.436;5.976;2024-01-30T00:01:27;52.23;50.61;53.87;;
71030;Laerm;63723;51.436;5.976;2024-01-30T00:01:38;52.30;50.84;54.24;;
71030;Laerm;63723;51.436;5.976;2024-01-30T00:01:48;52.41;50.84;56.34;;
71030;Laerm;63723;51.436;5.976;2024-01-30T00:01:59;52.58;50.46;54.32;;
71030;Laerm;63723;51.436;5.976;2024-01-30T00:02:09;53.27;51.14;55.63;;
71030;Laerm;63723;51.436;5.976;2024-01-30T00:02:19;52.65;51.20;54.68;;
71030;Laerm;63723;51.436;5.976;2024-01-30T00:02:30;52.44;50.85;55.78;;
71030;Laerm;63723;51.436;5.976;2024-01-30T00:02:40;52.25;50.68;53.88;;
71030;Laerm;63723;51.436;5.976;2024-01-30T00:02:53;52.08;50.55;56.64;;
71030;Laerm;63723;51.436;5.976;2024-01-30T00:03:03;51.96;50.56;54.34;;
71030;Laerm;63723;51.436;5.976;2024-01-30T00:03:14;52.11;50.71;53.86;;
71030;Laerm;63723;51.436;5.976;2024-01-30T00:03:24;52.82;50.74;56.03;;
71030;Laerm;63723;51.436;5.976;2024-01-30T00:03:35;52.53;50.78;56.92;;
71030;Laerm;63723;51.436;5.976;2024-01-30T00:03:45;52.15;50.62;55.24;;
71030;Laerm;63723;51.436;5.976;2024-01-30T00:03:55;52.11;50.39;53.62;;
71030;Laerm;63723;51.436;5.976;2024-01-30T00:04:06;52.02;50.45;58.31;;
71030;Laerm;63723;51.436;5.976;2024-01-30T00:04:16;52.33;50.75;56.30;;
71030;Laerm;63723;51.436;5.976;2024-01-30T00:04:27;52.16;50.55;55.03;;
71030;Laerm;63723;51.436;5.976;2024-01-30T00:04:37;51.65;50.12;56.23;;
71030;Laerm;63723;51.436;5.976;2024-01-30T00:04:48;51.55;50.28;56.79;;
71030;Laerm;63723;51.436;5.976;2024-01-30T00:04:58;51.70;50.35;56.75;;
71030;Laerm;63723;51.436;5.976;2024-01-30T00:05:08;51.63;50.27;56.00;;
71030;Laerm;63723;51.436;5.976;2024-01-30T00:05:19;51.86;50.17;55.90;;
71030;Laerm;63723;51.436;5.976;2024-01-30T00:05:29;51.69;50.07;56.13;;
71030;Laerm;63723;51.436;5.976;2024-01-30T00:05:40;52.10;50.50;58.24;;
71030;Laerm;63723;51.436;5.976;2024-01-30T00:05:50;52.08;50.47;54.13;;
71030;Laerm;63723;51.436;5.976;2024-01-30T00:06:00;52.23;50.86;57.05;;
71030;Laerm;63723;51.436;5.976;2024-01-30T00:06:13;52.17;50.72;55.36;;
71030;Laerm;63723;51.436;5.976;2024-01-30T00:06:23;52.18;50.31;54.93;;
71030;Laerm;63723;51.436;5.976;2024-01-30T00:06:34;52.01;50.80;56.47;;
71030;Laerm;63723;51.436;5.976;2024-01-30T00:06:44;52.00;50.54;53.81;;
71030;Laerm;63723;51.436;5.976;2024-01-30T00:06:55;52.00;50.78;55.33;;
71030;Laerm;63723;51.436;5.976;2024-01-30T00:07:05;51.98;50.66;53.66;;
71030;Laerm;63723;51.436;5.976;2024-01-30T00:07:15;52.12;50.61;56.42;;
71030;Laerm;63723;51.436;5.976;2024-01-30T00:07:26;52.11;50.45;55.11;;
71030;Laerm;63723;51.436;5.976;2024-01-30T00:07:36;51.83;50.33;56.27;;
71030;Laerm;63723;51.436;5.976;2024-01-30T00:07:46;52.02;50.68;54.01;;
71030;Laerm;63723;51.436;5.976;2024-01-30T00:07:57;52.15;50.60;55.41;;
71030;Laerm;63723;51.436;5.976;2024-01-30T00:08:07;52.22;50.49;53.86;;
71030;Laerm;63723;51.436;5.976;2024-01-30T00:08:17;52.42;51.22;54.86;;
71030;Laerm;63723;51.436;5.976;2024-01-30T00:08:28;52.51;50.92;57.72;;
71030;Laerm;63723;51.436;5.976;2024-01-30T00:08:38;52.39;50.84;60.49;;
71030;Laerm;63723;51.436;5.976;2024-01-30T00:08:48;52.97;50.81;55.89;;
71030;Laerm;63723;51.436;5.976;2024-01-30T00:08:59;52.45;50.53;55.90;;
71030;Laerm;63723;51.436;5.976;2024-01-30T00:09:09;52.39;50.91;56.69;;
71030;Laerm;63723;51.436;5.976;2024-01-30T00:09:20;52.35;50.90;54.31;;
71030;Laerm;63723;51.436;5.976;2024-01-30T00:09:31;52.31;50.63;54.17;;
71030;Laerm;63723;51.436;5.976;2024-01-30T00:09:41;52.39;50.51;56.26;;
71030;Laerm;63723;51.436;5.976;2024-01-30T00:09:52;52.46;50.42;55.89;;
71030;Laerm;63723;51.436;5.976;2024-01-30T00:10:02;52.53;50.73;57.57;;
71030;Laerm;63723;51.436;5.976;2024-01-30T00:10:12;52.51;50.72;55.90;;
71030;Laerm;63723;51.436;5.976;2024-01-30T00:10:23;52.23;50.69;55.35;;
71030;Laerm;63723;51.436;5.976;2024-01-30T00:10:33;52.37;50.65;56.78;;
71030;Laerm;63723;51.436;5.976;2024-01-30T00:10:43;52.33;50.62;56.78;;
71030;Laerm;63723;51.436;5.976;2024-01-30T00:10:54;52.52;50.72;56.93;;
71030;Laerm;63723;51.436;5.976;2024-01-30T00:11:05;55.68;50.12;59.34;;
71030;Laerm;63723;51.436;5.976;2024-01-30T00:11:15;53.34;51.15;56.68;;
71030;Laerm;63723;51.436;5.976;2024-01-30T00:11:26;53.14;50.86;58.34;;
71030;Laerm;63723;51.436;5.976;2024-01-30T00:11:37;52.99;50.84;58.50;;
71030;Laerm;63723;51.436;5.976;2024-01-30T00:11:47;53.86;51.36;56.46;;
71030;Laerm;63723;51.436;5.976;2024-01-30T00:11:57;53.85;51.33;57.11;;
71030;Laerm;63723;51.436;5.976;2024-01-30T00:12:08;54.61;51.43;57.44;;
71030;Laerm;63723;51.436;5.976;2024-01-30T00:12:18;55.72;53.87;57.31;;
71030;Laerm;63723;51.436;5.976;2024-01-30T00:12:28;55.79;54.13;57.57;;
71030;Laerm;63723;51.436;5.976;2024-01-30T00:12:39;56.78;54.13;61.16;;
71030;Laerm;63723;51.436;5.976;2024-01-30T00:12:49;56.10;53.31;58.35;;
71030;Laerm;63723;51.436;5.976;2024-01-30T00:12:59;56.50;54.65;58.35;;
71030;Laerm;63723;51.436;5.976;2024-01-30T00:13:10;56.81;54.58;59.26;;
71030;Laerm;63723;51.436;5.976;2024-01-30T00:13:20;56.72;54.49;59.41;;
71030;Laerm;63723;51.436;5.976;2024-01-30T00:13:30;56.56;54.55;58.57;;
71030;Laerm;63723;51.436;5.976;2024-01-30T00:13:41;56.42;54.34;58.38;;
71030;Laerm;63723;51.436;5.976;2024-01-30T00:13:51;56.87;54.65;58.52;;
71030;Laerm;63723;51.436;5.976;2024-01-30T00:14:02;56.61;54.39;58.88;;
71030;Laerm;63723;51.436;5.976;2024-01-30T00:14:13;56.65;53.68;58.48;;
71030;Laerm;63723;51.436;5.976;2024-01-30T00:14:23;56.73;54.62;58.56;;
71030;Laerm;63723;51.436;5.976;2024-01-30T00:14:34;56.26;54.33;57.97;;
71030;Laerm;63723;51.436;5.976;2024-01-30T00:14:44;56.07;53.68;58.09;;
71030;Laerm;63723;51.436;5.976;2024-01-30T00:14:54;56.30;53.95;58.56;;
71030;Laerm;63723;51.436;5.976;2024-01-30T00:15:05;57.38;54.98;59.47;;
71030;Laerm;63723;51.436;5.976;2024-01-30T00:15:18;57.24;55.42;58.75;;
71030;Laerm;63723;51.436;5.976;2024-01-30T00:15:28;56.91;52.18;59.05;;
71030;Laerm;63723;51.436;5.976;2024-01-30T00:15:38;56.49;53.62;58.50;;
71030;Laerm;63723;51.436;5.976;2024-01-30T00:15:49;56.57;53.22;59.26;;
71030;Laerm;63723;51.436;5.976;2024-01-30T00:15:59;57.07;52.49;59.48;;
71030;Laerm;63723;51.436;5.976;2024-01-30T00:16:19;56.92;52.63;59.15;;
71030;Laerm;63723;51.436;5.976;2024-01-30T00:16:30;56.73;51.87;58.67;;
71030;Laerm;63723;51.436;5.976;2024-01-30T00:16:41;52.95;51.33;55.04;;
71030;Laerm;63723;51.436;5.976;2024-01-30T00:16:51;53.14;51.31;55.40;;
71030;Laerm;63723;51.436;5.976;2024-01-30T00:17:02;52.90;51.39;55.19;;
71030;Laerm;63723;51.436;5.976;2024-01-30T00:17:12;52.88;51.38;54.74;;
71030;Laerm;63723;51.436;5.976;2024-01-30T00:17:22;53.18;51.58;55.16;;
71030;Laerm;63723;51.436;5.976;2024-01-30T00:17:35;53.03;51.48;54.65;;
71030;Laerm;63723;51.436;5.976;2024-01-30T00:17:46;53.25;51.43;55.17;;
71030;Laerm;63723;51.436;5.976;2024-01-30T00:17:57;53.24;51.74;55.06;;
71030;Laerm;63723;51.436;5.976;2024-01-30T00:18:07;53.19;51.42;54.81;;
71030;Laerm;63723;51.436;5.976;2024-01-30T00:18:17;53.68;51.65;58.36;;
71030;Laerm;63723;51.436;5.976;2024-01-30T00:18:28;53.78;51.96;55.26;;
71030;Laerm;63723;51.436;5.976;2024-01-30T00:18:39;53.90;52.41;55.85;;
71030;Laerm;63723;51.436;5.976;2024-01-30T00:18:52;53.80;52.21;55.66;;
71030;Laerm;63723;51.436;5.976;2024-01-30T00:19:03;53.77;51.99;55.03;;
71030;Laerm;63723;51.436;5.976;2024-01-30T00:19:13;53.97;52.33;55.60;;
71030;Laerm;63723;51.436;5.976;2024-01-30T00:19:24;54.02;51.65;55.97;;
71030;Laerm;63723;51.436;5.976;2024-01-30T00:19:34;53.58;51.53;55.12;;
71030;Laerm;63723;51.436;5.976;2024-01-30T00:19:44;53.80;52.10;55.51;;
71030;Laerm;63723;51.436;5.976;2024-01-30T00:19:54;53.90;52.22;55.78;;
71030;Laerm;63723;51.436;5.976;2024-01-30T00:20:05;53.60;51.77;55.14;;
71030;Laerm;63723;51.436;5.976;2024-01-30T00:20:15;53.48;51.74;55.12;;
71030;Laerm;63723;51.436;5.976;2024-01-30T00:20:26;53.39;51.16;55.57;;
71030;Laerm;63723;51.436;5.976;2024-01-30T00:20:36;54.16;52.09;56.08;;
71030;Laerm;63723;51.436;5.976;2024-01-30T00:20:46;54.33;52.40;56.03;;
71030;Laerm;63723;51.436;5.976;2024-01-30T00:20:57;54.36;51.96;56.18;;
71030;Laerm;63723;51.436;5.976;2024-01-30T00:21:07;54.25;51.69;55.88;;
71030;Laerm;63723;51.436;5.976;2024-01-30T00:21:18;53.93;51.85;57.38;;
71030;Laerm;63723;51.436;5.976;2024-01-30T00:21:28;55.14;52.23;59.36;;
71030;Laerm;63723;51.436;5.976;2024-01-30T00:21:38;53.93;52.23;55.36;;
71030;Laerm;63723;51.436;5.976;2024-01-30T00:21:49;53.70;51.71;55.34;;
71030;Laerm;63723;51.436;5.976;2024-01-30T00:21:59;53.96;52.28;55.63;;
71030;Laerm;63723;51.436;5.976;2024-01-30T00:22:10;53.93;52.33;55.45;;
71030;Laerm;63723;51.436;5.976;2024-01-30T00:22:20;53.93;52.44;56.16;;
71030;Laerm;63723;51.436;5.976;2024-01-30T00:22:32;53.79;51.24;56.70;;
71030;Laerm;63723;51.436;5.976;2024-01-30T00:22:43;54.44;52.01;56.34;;
71030;Laerm;63723;51.436;5.976;2024-01-30T00:22:54;54.09;50.85;56.31;;
71030;Laerm;63723;51.436;5.976;2024-01-30T00:23:04;54.48;52.79;56.19;;
71030;Laerm;63723;51.436;5.976;2024-01-30T00:23:14;54.40;52.30;56.75;;
71030;Laerm;63723;51.436;5.976;2024-01-30T00:23:25;54.39;52.71;56.09;;
71030;Laerm;63723;51.436;5.976;2024-01-30T00:23:35;54.23;52.40;56.17;;
71030;Laerm;63723;51.436;5.976;2024-01-30T00:23:45;54.00;52.41;55.73;;
71030;Laerm;63723;51.436;5.976;2024-01-30T00:23:56;53.95;52.18;55.77;;
71030;Laerm;63723;51.436;5.976;2024-01-30T00:24:06;53.98;52.26;55.95;;
71030;Laerm;63723;51.436;5.976;2024-01-30T00:24:17;54.74;52.43;56.87;;
71030;Laerm;63723;51.436;5.976;2024-01-30T00:24:27;55.24;51.16;61.23;;
71030;Laerm;63723;51.436;5.976;2024-01-30T00:24:37;52.37;50.90;56.84;;
71030;Laerm;63723;51.436;5.976;2024-01-30T00:24:47;52.33;50.70;55.06;;
71030;Laerm;63723;51.436;5.976;2024-01-30T00:24:58;52.23;50.58;54.84;;
71030;Laerm;63723;51.436;5.976;2024-01-30T00:25:08;52.45;50.07;57.42;;
71030;Laerm;63723;51.436;5.976;2024-01-30T00:25:19;52.35;50.87;55.83;;
71030;Laerm;63723;51.436;5.976;2024-01-30T00:25:29;52.76;51.00;56.04;;
71030;Laerm;63723;51.436;5.976;2024-01-30T00:25:39;52.94;50.51;56.22;;
71030;Laerm;63723;51.436;5.976;2024-01-30T00:25:50;52.94;50.85;55.82;;
71030;Laerm;63723;51.436;5.976;2024-01-30T00:26:00;52.80;50.76;55.99;;
71030;Laerm;63723;51.436;5.976;2024-01-30T00:26:11;52.86;50.96;55.44;;
71030;Laerm;63723;51.436;5.976;2024-01-30T00:26:21;52.80;50.76;55.49;;
71030;Laerm;63723;51.436;5.976;2024-01-30T00:26:32;52.81;50.77;55.33;;
71030;Laerm;63723;51.436;5.976;2024-01-30T00:26:42;52.77;50.43;54.69;;
71030;Laerm;63723;51.436;5.976;2024-01-30T00:26:52;53.01;50.97;56.43;;
71030;Laerm;63723;51.436;5.976;2024-01-30T00:27:02;53.72;50.83;61.00;;
71030;Laerm;63723;51.436;5.976;2024-01-30T00:27:13;55.22;51.31;61.34;;
71030;Laerm;63723;51.436;5.976;2024-01-30T00:27:23;52.94;51.19;55.43;;
71030;Laerm;63723;51.436;5.976;2024-01-30T00:27:34;53.25;51.36;57.49;;
71030;Laerm;63723;51.436;5.976;2024-01-30T00:27:44;55.04;52.01;59.43;;
71030;Laerm;63723;51.436;5.976;2024-01-30T00:27:54;54.76;51.17;57.98;;
71030;Laerm;63723;51.436;5.976;2024-01-30T00:28:04;54.24;51.48;57.94;;
71030;Laerm;63723;51.436;5.976;2024-01-30T00:28:15;54.49;51.47;58.11;;
71030;Laerm;63723;51.436;5.976;2024-01-30T00:28:25;54.44;51.70;58.54;;
71030;Laerm;63723;51.436;5.976;2024-01-30T00:28:36;56.31;51.78;60.08;;
71030;Laerm;63723;51.436;5.976;2024-01-30T00:28:46;55.99;51.55;60.09;;
71030;Laerm;63723;51.436;5.976;2024-01-30T00:28:56;56.08;51.73;59.65;;
71030;Laerm;63723;51.436;5.976;2024-01-30T00:29:07;55.81;51.77;59.77;;
71030;Laerm;63723;51.436;5.976;2024-01-30T00:29:17;55.81;51.46;59.69;;
71030;Laerm;63723;51.436;5.976;2024-01-30T00:29:29;55.34;51.35;58.85;;
71030;Laerm;63723;51.436;5.976;2024-01-30T00:29:43;55.48;50.76;58.93;;
71030;Laerm;63723;51.436;5.976;2024-01-30T00:29:54;54.06;50.88;58.59;;
71030;Laerm;63723;51.436;5.976;2024-01-30T00:30:04;53.93;51.42;57.68;;
71030;Laerm;63723;51.436;5.976;2024-01-30T00:30:15;53.99;51.42;57.46;;
71030;Laerm;63723;51.436;5.976;2024-01-30T00:30:25;53.78;51.05;57.14;;
71030;Laerm;63723;51.436;5.976;2024-01-30T00:30:35;53.98;51.25;57.11;;
71030;Laerm;63723;51.436;5.976;2024-01-30T00:30:46;53.70;50.61;58.49;;
71030;Laerm;63723;51.436;5.976;2024-01-30T00:30:56;52.51;50.72;56.56;;
71030;Laerm;63723;51.436;5.976;2024-01-30T00:31:06;52.82;50.24;56.31;;
71030;Laerm;63723;51.436;5.976;2024-01-30T00:31:17;52.60;50.11;56.39;;
71030;Laerm;63723;51.436;5.976;2024-01-30T00:31:27;52.67;50.10;56.12;;
71030;Laerm;63723;51.436;5.976;2024-01-30T00:31:38;53.69;50.53;58.55;;
71030;Laerm;63723;51.436;5.976;2024-01-30T00:31:48;55.60;50.33;59.67;;
71030;Laerm;63723;51.436;5.976;2024-01-30T00:31:59;53.66;50.34;57.39;;
71030;Laerm;63723;51.436;5.976;2024-01-30T00:32:09;53.76;51.08;57.55;;
71030;Laerm;63723;51.436;5.976;2024-01-30T00:32:19;53.56;50.61;57.84;;
71030;Laerm;63723;51.436;5.976;2024-01-30T00:32:30;53.74;51.05;57.75;;
71030;Laerm;63723;51.436;5.976;2024-01-30T00:32:40;53.69;51.26;57.66;;
71030;Laerm;63723;51.436;5.976;2024-01-30T00:32:50;54.25;51.64;57.00;;
71030;Laerm;63723;51.436;5.976;2024-01-30T00:33:01;54.51;51.60;58.11;;
71030;Laerm;63723;51.436;5.976;2024-01-30T00:33:11;54.50;51.85;58.34;;
71030;Laerm;63723;51.436;5.976;2024-01-30T00:33:21;54.43;51.66;58.04;;
71030;Laerm;63723;51.436;5.976;2024-01-30T00:33:32;54.29;51.28;59.73;;
71030;Laerm;63723;51.436;5.976;2024-01-30T00:33:42;56.44;51.48;60.32;;
71030;Laerm;63723;51.436;5.976;2024-01-30T00:33:52;55.64;51.16;59.95;;
71030;Laerm;63723;51.436;5.976;2024-01-30T00:34:03;56.01;51.73;59.48;;
71030;Laerm;63723;51.436;5.976;2024-01-30T00:34:13;53.92;51.29;57.18;;
71030;Laerm;63723;51.436;5.976;2024-01-30T00:34:24;54.36;51.44;57.81;;
71030;Laerm;63723;51.436;5.976;2024-01-30T00:34:34;56.15;51.37;59.52;;
71030;Laerm;63723;51.436;5.976;2024-01-30T00:34:44;56.11;51.45;59.47;;
71030;Laerm;63723;51.436;5.976;2024-01-30T00:34:55;56.42;51.22;60.88;;
71030;Laerm;63723;51.436;5.976;2024-01-30T00:35:05;56.20;51.59;59.92;;
71030;Laerm;63723;51.436;5.976;2024-01-30T00:35:16;56.11;51.40;60.07;;
71030;Laerm;63723;51.436;5.976;2024-01-30T00:35:26;55.86;51.53;59.41;;
71030;Laerm;63723;51.436;5.976;2024-01-30T00:35:37;56.21;51.50;59.48;;
71030;Laerm;63723;51.436;5.976;2024-01-30T00:35:47;56.27;51.73;59.74;;
71030;Laerm;63723;51.436;5.976;2024-01-30T00:35:57;56.28;51.17;59.64;;
71030;Laerm;63723;51.436;5.976;2024-01-30T00:36:08;56.06;50.64;59.52;;
71030;Laerm;63723;51.436;5.976;2024-01-30T00:36:19;56.34;51.40;59.50;;
71030;Laerm;63723;51.436;5.976;2024-01-30T00:36:29;55.81;51.16;59.25;;
71030;Laerm;63723;51.436;5.976;2024-01-30T00:36:40;56.15;50.90;59.79;;
71030;Laerm;63723;51.436;5.976;2024-01-30T00:36:50;56.02;51.25;59.14;;
71030;Laerm;63723;51.436;5.976;2024-01-30T00:37:01;55.95;51.18;59.49;;
71030;Laerm;63723;51.436;5.976;2024-01-30T00:37:11;55.83;50.80;59.29;;
71030;Laerm;63723;51.436;5.976;2024-01-30T00:37:22;55.90;51.44;59.27;;
71030;Laerm;63723;51.436;5.976;2024-01-30T00:37:33;55.27;50.99;58.83;;
71030;Laerm;63723;51.436;5.976;2024-01-30T00:37:43;55.45;49.99;59.15;;
71030;Laerm;63723;51.436;5.976;2024-01-30T00:37:54;55.81;51.18;59.83;;
71030;Laerm;63723;51.436;5.976;2024-01-30T00:38:04;55.43;51.10;59.36;;
71030;Laerm;63723;51.436;5.976;2024-01-30T00:38:15;55.66;51.22;59.23;;
71030;Laerm;63723;51.436;5.976;2024-01-30T00:38:25;55.30;50.55;58.86;;
71030;Laerm;63723;51.436;5.976;2024-01-30T00:38:35;55.27;50.71;59.15;;
71030;Laerm;63723;51.436;5.976;2024-01-30T00:38:45;55.39;51.30;60.07;;
71030;Laerm;63723;51.436;5.976;2024-01-30T00:38:56;55.31;50.89;58.59;;
71030;Laerm;63723;51.436;5.976;2024-01-30T00:39:06;55.30;51.25;59.26;;
71030;Laerm;63723;51.436;5.976;2024-01-30T00:39:19;55.57;50.73;59.31;;
71030;Laerm;63723;51.436;5.976;2024-01-30T00:39:29;56.21;50.49;58.90;;
71030;Laerm;63723;51.436;5.976;2024-01-30T00:39:40;56.45;50.88;59.45;;
71030;Laerm;63723;51.436;5.976;2024-01-30T00:39:50;56.46;50.94;59.64;;
71030;Laerm;63723;51.436;5.976;2024-01-30T00:40:00;55.86;49.07;59.25;;
71030;Laerm;63723;51.436;5.976;2024-01-30T00:40:11;52.93;49.08;56.26;;
71030;Laerm;63723;51.436;5.976;2024-01-30T00:40:25;53.98;51.59;56.15;;
71030;Laerm;63723;51.436;5.976;2024-01-30T00:40:36;52.95;50.39;55.84;;
71030;Laerm;63723;51.436;5.976;2024-01-30T00:40:46;54.10;50.43;56.48;;
71030;Laerm;63723;51.436;5.976;2024-01-30T00:40:56;53.73;50.50;56.21;;
71030;Laerm;63723;51.436;5.976;2024-01-30T00:41:08;53.75;49.48;59.11;;
71030;Laerm;63723;51.436;5.976;2024-01-30T00:41:18;51.47;49.67;54.76;;
71030;Laerm;63723;51.436;5.976;2024-01-30T00:41:29;50.86;49.32;52.33;;
71030;Laerm;63723;51.436;5.976;2024-01-30T00:41:39;50.93;49.48;56.89;;
71030;Laerm;63723;51.436;5.976;2024-01-30T00:41:50;52.59;50.31;57.60;;
71030;Laerm;63723;51.436;5.976;2024-01-30T00:42:00;52.27;50.28;56.29;;
71030;Laerm;63723;51.436;5.976;2024-01-30T00:42:10;53.21;50.33;59.20;;
71030;Laerm;63723;51.436;5.976;2024-01-30T00:42:21;51.70;49.41;58.45;;
71030;Laerm;63723;51.436;5.976;2024-01-30T00:42:33;53.97;49.61;60.50;;
71030;Laerm;63723;51.436;5.976;2024-01-30T00:42:44;56.14;53.33;57.85;;
71030;Laerm;63723;51.436;5.976;2024-01-30T00:42:54;56.36;52.61;59.50;;
71030;Laerm;63723;51.436;5.976;2024-01-30T00:43:04;55.64;51.12;58.73;;
71030;Laerm;63723;51.436;5.976;2024-01-30T00:43:15;60.70;52.81;63.38;;
71030;Laerm;63723;51.436;5.976;2024-01-30T00:43:26;56.17;49.68;62.21;;
71030;Laerm;63723;51.436;5.976;2024-01-30T00:43:36;56.58;50.08;60.81;;
71030;Laerm;63723;51.436;5.976;2024-01-30T00:43:47;55.79;52.06;58.04;;
71030;Laerm;63723;51.436;5.976;2024-01-30T00:43:57;55.33;50.87;57.51;;
71030;Laerm;63723;51.436;5.976;2024-01-30T00:44:08;55.30;51.45;57.99;;
71030;Laerm;63723;51.436;5.976;2024-01-30T00:44:18;55.33;52.36;57.73;;
71030;Laerm;63723;51.436;5.976;2024-01-30T00:44:28;54.79;52.09;57.53;;
71030;Laerm;63723;51.436;5.976;2024-01-30T00:44:39;54.04;52.37;56.69;;
71030;Laerm;63723;51.436;5.976;2024-01-30T00:44:49;54.37;52.33;56.77;;
71030;Laerm;63723;51.436;5.976;2024-01-30T00:44:59;54.31;52.28;56.57;;
71030;Laerm;63723;51.436;5.976;2024-01-30T00:45:15;54.74;51.77;57.70;;
71030;Laerm;63723;51.436;5.976;2024-01-30T00:45:26;54.28;50.74;57.54;;
71030;Laerm;63723;51.436;5.976;2024-01-30T00:45:36;53.20;50.36;56.21;;
71030;Laerm;63723;51.436;5.976;2024-01-30T00:45:47;53.45;50.79;56.58;;
71030;Laerm;63723;51.436;5.976;2024-01-30T00:45:57;54.67;51.80;57.29;;
71030;Laerm;63723;51.436;5.976;2024-01-30T00:46:08;55.29;53.10;57.78;;
71030;Laerm;63723;51.436;5.976;2024-01-30T00:46:18;55.54;52.80;58.13;;
71030;Laerm;63723;51.436;5.976;2024-01-30T00:46:28;55.31;52.88;58.35;;
71030;Laerm;63723;51.436;5.976;2024-01-30T00:46:39;55.31;52.97;57.30;;
71030;Laerm;63723;51.436;5.976;2024-01-30T00:46:49;55.52;52.73;58.60;;
71030;Laerm;63723;51.436;5.976;2024-01-30T00:46:59;55.67;53.27;58.44;;
71030;Laerm;63723;51.436;5.976;2024-01-30T00:47:10;55.23;53.40;57.34;;
71030;Laerm;63723;51.436;5.976;2024-01-30T00:47:20;55.57;52.85;58.34;;
71030;Laerm;63723;51.436;5.976;2024-01-30T00:47:30;55.99;53.29;59.22;;
71030;Laerm;63723;51.436;5.976;2024-01-30T00:47:43;54.42;50.04;57.24;;
71030;Laerm;63723;51.436;5.976;2024-01-30T00:47:53;54.16;50.95;57.16;;
71030;Laerm;63723;51.436;5.976;2024-01-30T00:48:04;53.24;51.07;56.13;;
71030;Laerm;63723;51.436;5.976;2024-01-30T00:48:14;53.47;51.63;55.11;;
71030;Laerm;63723;51.436;5.976;2024-01-30T00:48:25;52.85;51.46;55.25;;
71030;Laerm;63723;51.436;5.976;2024-01-30T00:48:35;52.87;51.22;54.60;;
71030;Laerm;63723;51.436;5.976;2024-01-30T00:48:45;53.02;51.32;55.40;;
71030;Laerm;63723;51.436;5.976;2024-01-30T00:48:56;53.84;51.83;55.66;;
71030;Laerm;63723;51.436;5.976;2024-01-30T00:49:06;54.14;52.05;55.95;;
71030;Laerm;63723;51.436;5.976;2024-01-30T00:49:16;53.57;51.59;55.98;;
71030;Laerm;63723;51.436;5.976;2024-01-30T00:49:26;53.64;51.34;55.73;;
71030;Laerm;63723;51.436;5.976;2024-01-30T00:49:37;53.27;51.23;56.08;;
71030;Laerm;63723;51.436;5.976;2024-01-30T00:49:47;53.25;51.58;54.93;;
71030;Laerm;63723;51.436;5.976;2024-01-30T00:49:57;53.32;51.65;55.09;;
71030;Laerm;63723;51.436;5.976;2024-01-30T00:50:08;53.41;51.64;54.94;;
71030;Laerm;63723;51.436;5.976;2024-01-30T00:50:18;53.74;51.40;57.42;;
71030;Laerm;63723;51.436;5.976;2024-01-30T00:50:29;56.03;53.09;58.52;;
71030;Laerm;63723;51.436;5.976;2024-01-30T00:50:39;55.64;53.00;57.51;;
71030;Laerm;63723;51.436;5.976;2024-01-30T00:50:49;55.82;52.88;57.87;;
71030;Laerm;63723;51.436;5.976;2024-01-30T00:51:00;55.51;52.14;59.09;;
71030;Laerm;63723;51.436;5.976;2024-01-30T00:51:10;54.96;51.81;57.58;;
71030;Laerm;63723;51.436;5.976;2024-01-30T00:51:20;55.46;52.55;57.72;;
71030;Laerm;63723;51.436;5.976;2024-01-30T00:51:31;55.23;52.18;57.26;;
71030;Laerm;63723;51.436;5.976;2024-01-30T00:51:41;55.31;52.41;57.64;;
71030;Laerm;63723;51.436;5.976;2024-01-30T00:51:51;55.33;52.60;58.03;;
71030;Laerm;63723;51.436;5.976;2024-01-30T00:52:02;54.97;52.35;57.39;;
71030;Laerm;63723;51.436;5.976;2024-01-30T00:52:12;55.20;52.64;57.63;;
71030;Laerm;63723;51.436;5.976;2024-01-30T00:52:22;55.34;52.18;57.95;;
71030;Laerm;63723;51.436;5.976;2024-01-30T00:52:33;55.34;52.23;58.24;;
71030;Laerm;63723;51.436;5.976;2024-01-30T00:52:43;55.25;52.32;57.80;;
71030;Laerm;63723;51.436;5.976;2024-01-30T00:52:55;55.26;51.94;57.86;;
71030;Laerm;63723;51.436;5.976;2024-01-30T00:53:05;55.37;52.12;59.52;;
71030;Laerm;63723;51.436;5.976;2024-01-30T00:53:16;53.23;50.86;55.93;;
71030;Laerm;63723;51.436;5.976;2024-01-30T00:53:26;53.19;51.06;55.05;;
71030;Laerm;63723;51.436;5.976;2024-01-30T00:53:37;52.96;50.97;55.25;;
71030;Laerm;63723;51.436;5.976;2024-01-30T00:53:47;53.42;51.11;56.00;;
71030;Laerm;63723;51.436;5.976;2024-01-30T00:53:57;53.15;51.09;56.31;;
71030;Laerm;63723;51.436;5.976;2024-01-30T00:54:08;53.04;50.95;55.82;;
71030;Laerm;63723;51.436;5.976;2024-01-30T00:54:19;53.45;50.94;55.87;;
71030;Laerm;63723;51.436;5.976;2024-01-30T00:54:29;53.84;50.94;56.21;;
71030;Laerm;63723;51.436;5.976;2024-01-30T00:54:39;53.56;51.50;55.57;;
71030;Laerm;63723;51.436;5.976;2024-01-30T00:54:49;54.10;51.10;56.66;;
71030;Laerm;63723;51.436;5.976;2024-01-30T00:55:00;54.13;51.20;56.41;;
71030;Laerm;63723;51.436;5.976;2024-01-30T00:55:10;53.97;51.14;57.05;;
71030;Laerm;63723;51.436;5.976;2024-01-30T00:55:21;54.17;51.45;56.82;;
71030;Laerm;63723;51.436;5.976;2024-01-30T00:55:31;54.41;51.47;57.29;;
71030;Laerm;63723;51.436;5.976;2024-01-30T00:55:42;54.61;51.99;57.16;;
71030;Laerm;63723;51.436;5.976;2024-01-30T00:55:52;54.66;52.09;57.55;;
71030;Laerm;63723;51.436;5.976;2024-01-30T00:56:03;54.82;51.89;56.87;;
71030;Laerm;63723;51.436;5.976;2024-01-30T00:56:14;54.27;51.57;57.12;;
71030;Laerm;63723;51.436;5.976;2024-01-30T00:56:28;54.56;50.83;57.98;;
71030;Laerm;63723;51.436;5.976;2024-01-30T00:56:38;54.75;51.98;57.60;;
71030;Laerm;63723;51.436;5.976;2024-01-30T00:56:49;54.60;51.76;56.95;;
71030;Laerm;63723;51.436;5.976;2024-01-30T00:56:59;54.91;51.94;57.27;;
71030;Laerm;63723;51.436;5.976;2024-01-30T00:57:09;54.75;52.40;57.05;;
71030;Laerm;63723;51.436;5.976;2024-01-30T00:57:20;54.67;51.78;57.23;;
71030;Laerm;63723;51.436;5.976;2024-01-30T00:57:30;54.25;51.44;57.35;;
71030;Laerm;63723;51.436;5.976;2024-01-30T00:57:41;53.89;50.46;56.74;;
71030;Laerm;63723;51.436;5.976;2024-01-30T00:57:51;55.38;51.74;58.45;;
71030;Laerm;63723;51.436;5.976;2024-01-30T00:58:02;55.27;51.23;57.91;;
71030;Laerm;63723;51.436;5.976;2024-01-30T00:58:13;55.47;51.82;57.88;;
71030;Laerm;63723;51.436;5.976;2024-01-30T00:58:23;54.91;51.82;57.48;;
71030;Laerm;63723;51.436;5.976;2024-01-30T00:58:34;55.43;51.46;58.17;;
71030;Laerm;63723;51.436;5.976;2024-01-30T00:58:44;54.80;50.27;58.21;;
71030;Laerm;63723;51.436;5.976;2024-01-30T00:58:55;55.18;52.10;58.18;;
71030;Laerm;63723;51.436;5.976;2024-01-30T00:59:05;54.89;51.34;57.62;;